Time;durP1;ratioP1;P1;durP2;ratioP2;P2;SDS_P1;SDS_P2;PMS_P1;PMS_P2;Temp;Humidity;BMP_temperature;BMP_pressure;BME280_temperature;BME280_humidity;BME280_pressure;Samples;Min_cycle;Max_cycle;Signal;HPM_P1;HPM_P2
2022/06/07 00:00:48;;;;;;;11.15;5.18;;;19.40;92.10;;;;;;4825380;29;20397;-91
2022/06/07 00:03:14;;;;;;;10.95;5.97;;;22.00;93.00;;;;;;4814498;29;20388;-88
2022/06/07 00:05:56;;;;;;;11.82;6.00;;;22.20;92.40;;;;;;4812925;29;20037;-94
2022/06/07 00:08:22;;;;;;;12.38;6.32;;;22.00;92.30;;;;;;4816688;29;20022;-92
2022/06/07 00:10:52;;;;;;;10.05;5.63;;;22.00;92.60;;;;;;4828282;29;20039;-87
2022/06/07 00:13:22;;;;;;;13.38;6.55;;;21.80;91.90;;;;;;4834776;29;20043;-84
2022/06/07 00:15:50;;;;;;;10.68;5.65;;;21.90;92.70;;;;;;4823479;29;20073;-89
2022/06/07 00:18:17;;;;;;;12.60;6.38;;;21.90;92.90;;;;;;4827405;29;20037;-85
2022/06/07 00:20:44;;;;;;;10.55;5.05;;;20.60;92.40;;;;;;4820943;29;20026;-83
2022/06/07 00:23:14;;;;;;;17.55;5.65;;;20.80;92.30;;;;;;4819265;29;20144;-83
2022/06/07 00:25:41;;;;;;;10.98;6.20;;;21.50;92.90;;;;;;4818827;29;20053;-91
2022/06/07 00:28:07;;;;;;;12.20;5.72;;;21.30;92.80;;;;;;4820672;29;20022;-86
2022/06/07 00:30:34;;;;;;;12.18;5.75;;;21.20;94.00;;;;;;4821463;29;20034;-90
2022/06/07 00:33:00;;;;;;;13.95;7.07;;;21.30;93.70;;;;;;4817843;29;20030;-86
2022/06/07 00:35:27;;;;;;;12.80;5.95;;;21.40;93.90;;;;;;4818558;29;20054;-91
2022/06/07 00:37:53;;;;;;;11.95;6.30;;;21.70;93.60;;;;;;4814319;29;20333;-85
2022/06/07 00:40:29;;;;;;;12.05;5.78;;;22.00;93.60;;;;;;4812724;29;20069;-82
2022/06/07 00:42:55;;;;;;;10.65;5.95;;;21.20;94.40;;;;;;4819546;29;20434;-94
2022/06/07 00:45:23;;;;;;;10.60;6.07;;;21.10;94.60;;;;;;4815017;29;20060;-86
2022/06/07 00:47:49;;;;;;;12.40;6.55;;;21.50;93.00;;;;;;4812584;29;20057;-91
2022/06/07 00:50:55;;;;;;;9.40;5.72;;;21.60;93.90;;;;;;4799045;29;20054;-93
2022/06/07 00:53:28;;;;;;;10.15;5.72;;;21.70;93.50;;;;;;4821211;29;20094;-86
2022/06/07 00:55:55;;;;;;;9.48;5.07;;;21.30;93.50;;;;;;4813563;29;20031;-82
2022/06/07 00:58:22;;;;;;;10.25;5.25;;;21.40;93.70;;;;;;4820140;29;20409;-85
2022/06/07 01:00:50;;;;;;;12.65;5.82;;;21.60;93.60;;;;;;4802864;29;20505;-83
2022/06/07 01:03:16;;;;;;;13.38;5.43;;;21.60;93.60;;;;;;4801110;29;20044;-90
2022/06/07 01:05:42;;;;;;;10.90;5.07;;;21.70;93.60;;;;;;4820083;29;20038;-83
2022/06/07 01:10:55;;;;;;;15.45;6.68;;;21.70;93.40;;;;;;4817302;29;20059;-87
2022/06/07 01:13:25;;;;;;;11.32;6.18;;;21.10;93.80;;;;;;4815304;29;20038;-88
2022/06/07 01:16:00;;;;;;;13.55;6.75;;;21.50;92.40;;;;;;4800511;29;20301;-87
2022/06/07 01:18:26;;;;;;;11.38;6.20;;;21.30;93.50;;;;;;4816854;29;20483;-80
2022/06/07 01:21:28;;;;;;;11.30;5.88;;;21.60;93.70;;;;;;4818918;29;20046;-91
2022/06/07 01:23:54;;;;;;;12.90;6.22;;;21.40;92.20;;;;;;4749448;29;20344;-83
2022/06/07 01:26:20;;;;;;;15.10;6.75;;;21.00;93.80;;;;;;4754059;30;20364;-85
2022/06/07 01:28:47;;;;;;;11.93;6.00;;;20.50;94.30;;;;;;4751221;30;20080;-88
2022/06/07 01:31:19;;;;;;;11.48;5.25;;;20.70;93.40;;;;;;4751563;30;20109;-84
2022/06/07 01:33:46;;;;;;;10.60;5.28;;;20.60;95.20;;;;;;4753452;30;20560;-80
2022/06/07 01:36:15;;;;;;;9.48;5.45;;;21.10;94.70;;;;;;4750445;30;20033;-88
2022/06/07 01:38:43;;;;;;;11.13;5.88;;;21.10;94.40;;;;;;4744686;30;20174;-83
2022/06/07 01:43:56;;;;;;;11.27;6.20;;;21.30;93.10;;;;;;4756085;30;20309;-87
2022/06/07 01:46:22;;;;;;;12.68;6.55;;;20.90;94.10;;;;;;4760962;30;20027;-89
2022/06/07 01:48:48;;;;;;;11.18;6.03;;;20.90;94.70;;;;;;4758748;30;20531;-86
2022/06/07 01:51:16;;;;;;;12.13;5.80;;;21.30;94.10;;;;;;4763697;30;20066;-82
2022/06/07 01:53:42;;;;;;;11.45;5.85;;;21.40;93.50;;;;;;4764433;30;20115;-83
2022/06/07 01:56:13;;;;;;;12.95;6.43;;;21.60;93.50;;;;;;4759923;30;20169;-90
2022/06/07 01:58:44;;;;;;;13.48;6.07;;;21.50;93.00;;;;;;4747070;30;20044;-88
2022/06/07 02:01:11;;;;;;;10.98;6.05;;;21.40;93.30;;;;;;4806380;29;20266;-83
2022/06/07 02:03:38;;;;;;;13.48;6.30;;;21.60;91.70;;;;;;4820286;29;20506;-90
2022/06/07 02:06:10;;;;;;;10.18;5.38;;;21.10;93.50;;;;;;4815736;29;20022;-87
2022/06/07 02:08:36;;;;;;;12.32;5.85;;;21.30;93.60;;;;;;4815538;29;20467;-86
2022/06/07 02:11:11;;;;;;;11.90;6.28;;;21.50;93.10;;;;;;4817395;29;20661;-90
2022/06/07 02:13:36;;;;;;;11.25;6.15;;;25.20;93.90;;;;;;4817716;29;20047;-82
2022/06/07 02:16:03;;;;;;;10.45;5.82;;;21.60;92.80;;;;;;4817087;29;20041;-88
2022/06/07 02:18:29;;;;;;;11.63;6.00;;;21.80;92.70;;;;;;4812295;29;20026;-93
2022/06/07 02:20:56;;;;;;;11.05;5.57;;;21.70;92.70;;;;;;4811777;29;20048;-90
2022/06/07 02:23:22;;;;;;;10.25;5.28;;;21.70;92.60;;;;;;4810065;29;20023;-85
2022/06/07 02:25:51;;;;;;;11.35;5.97;;;21.90;92.50;;;;;;4809926;29;20093;-84
2022/06/07 02:28:19;;;;;;;11.60;5.97;;;21.40;92.70;;;;;;4810761;29;20510;-85
2022/06/07 02:30:46;;;;;;;16.40;6.20;;;21.40;92.90;;;;;;4809657;29;20035;-84
2022/06/07 02:33:13;;;;;;;11.68;5.35;;;21.60;92.60;;;;;;4810528;29;20038;-88
2022/06/07 02:35:42;;;;;;;9.45;5.22;;;21.80;92.40;;;;;;4812028;29;20035;-84
2022/06/07 02:38:09;;;;;;;11.35;5.85;;;21.80;92.30;;;;;;4817763;29;20058;-82
2022/06/07 02:40:35;;;;;;;10.70;5.30;;;21.80;92.20;;;;;;4818258;29;20046;-88
2022/06/07 02:43:04;;;;;;;13.15;6.65;;;21.90;92.20;;;;;;4802703;29;20633;-84
2022/06/07 02:45:30;;;;;;;10.35;5.50;;;21.80;92.30;;;;;;4814427;29;20072;-81
2022/06/07 02:47:56;;;;;;;11.48;5.10;;;;;;;;;;4811428;29;20332;-84
2022/06/07 02:50:23;;;;;;;13.07;6.45;;;21.80;92.00;;;;;;4813310;29;20437;-88
2022/06/07 02:52:49;;;;;;;12.65;6.15;;;21.90;92.00;;;;;;4811313;29;20034;-83
2022/06/07 02:55:15;;;;;;;11.60;6.07;;;21.90;91.80;;;;;;4811230;29;20031;-91
2022/06/07 02:57:41;;;;;;;9.73;5.35;;;21.90;91.90;;;;;;4812280;29;20546;-85
2022/06/07 03:00:10;;;;;;;11.57;5.45;;;22.70;91.90;;;;;;4812564;29;20030;-83
2022/06/07 03:02:43;;;;;;;12.40;5.47;;;22.00;91.80;;;;;;4814367;29;20079;-91
2022/06/07 03:05:12;;;;;;;10.52;5.38;;;22.00;91.80;;;;;;4814368;29;20022;-86
2022/06/07 03:07:39;;;;;;;12.60;6.25;;;22.10;91.50;;;;;;4813383;29;20106;-85
2022/06/07 03:10:07;;;;;;;12.95;5.88;;;22.10;91.50;;;;;;4812647;29;20030;-88
2022/06/07 03:12:32;;;;;;;11.07;5.63;;;22.00;91.70;;;;;;4828611;29;20050;-83
2022/06/07 03:14:59;;;;;;;13.05;6.22;;;22.00;91.90;;;;;;4815069;29;20027;-83
2022/06/07 03:17:26;;;;;;;10.45;5.60;;;21.60;91.50;;;;;;4815341;29;20087;-88
2022/06/07 03:19:52;;;;;;;11.80;6.00;;;22.10;91.70;;;;;;4814222;29;20053;-88
2022/06/07 03:22:18;;;;;;;11.90;6.22;;;22.10;91.50;;;;;;4813084;29;20038;-85
2022/06/07 03:24:44;;;;;;;12.65;6.32;;;22.10;91.70;;;;;;4813846;29;20049;-89
2022/06/07 03:27:11;;;;;;;11.32;5.63;;;22.10;91.50;;;;;;4813070;29;20039;-86
2022/06/07 03:29:37;;;;;;;12.73;6.55;;;22.10;91.50;;;;;;4813723;29;20023;-80
2022/06/07 03:32:04;;;;;;;12.95;6.00;;;22.10;91.40;;;;;;4812893;29;20038;-87
2022/06/07 03:34:33;;;;;;;12.52;6.53;;;22.10;91.40;;;;;;4813768;29;20034;-84
2022/06/07 03:36:59;;;;;;;11.32;6.00;;;22.10;91.60;;;;;;4816114;29;20033;-89
2022/06/07 03:39:28;;;;;;;12.57;6.22;;;22.10;91.40;;;;;;4819353;29;20117;-93
2022/06/07 03:42:04;;;;;;;11.80;5.80;;;22.20;91.20;;;;;;4866605;24;20279;-87
2022/06/07 03:44:50;;;;;;;12.02;5.95;;;22.10;91.30;;;;;;4780534;29;20137;-94
2022/06/07 03:47:17;;;;;;;11.27;6.05;;;22.10;91.20;;;;;;4801777;24;20347;-89
2022/06/07 03:49:42;;;;;;;10.65;5.70;;;22.10;91.20;;;;;;4782866;29;20394;-83
2022/06/07 03:52:09;;;;;;;11.13;6.03;;;22.20;91.00;;;;;;4784977;29;20406;-82
2022/06/07 03:54:34;;;;;;;9.75;5.50;;;22.30;91.00;;;;;;4785101;29;20027;-83
2022/06/07 03:57:00;;;;;;;11.18;6.20;;;22.20;91.10;;;;;;4799841;29;20053;-89
2022/06/07 03:59:27;;;;;;;11.75;5.72;;;22.20;90.90;;;;;;4781621;29;20709;-93
2022/06/07 04:01:53;;;;;;;11.23;5.88;;;22.20;91.20;;;;;;4780592;29;20030;-87
2022/06/07 04:04:23;;;;;;;11.85;6.07;;;22.20;91.10;;;;;;4782560;29;20038;-88
2022/06/07 04:10:47;;;;;;;10.70;5.85;;;22.10;91.10;;;;;;4799429;29;20345;-84
2022/06/07 04:14:18;;;;;;;13.25;5.97;;;23.50;91.40;;;;;;4854321;24;20126;-82
2022/06/07 04:16:55;;;;;;;12.18;6.63;;;23.60;91.50;;;;;;4730762;30;20266;-85
2022/06/07 04:19:42;;;;;;;13.65;6.07;;;21.90;91.50;;;;;;4712819;30;20286;-86
2022/06/07 04:22:33;;;;;;;15.55;6.90;;;21.30;91.50;;;;;;4711619;30;20099;-84
2022/06/07 04:25:03;;;;;;;11.80;5.72;;;21.90;90.80;;;;;;4708678;30;20628;-79
2022/06/07 04:27:29;;;;;;;11.95;7.32;;;21.90;91.30;;;;;;4707197;30;20037;-90
2022/06/07 04:30:23;;;;;;;14.63;5.85;;;22.20;91.60;;;;;;4720351;30;20064;-93
2022/06/07 04:32:52;;;;;;;10.73;5.78;;;22.50;91.20;;;;;;4722669;30;20053;-84
2022/06/07 04:35:18;;;;;;;10.27;5.97;;;21.00;91.40;;;;;;4720338;30;20128;-84
2022/06/07 04:37:48;;;;;;;12.15;6.72;;;22.10;91.30;;;;;;4705797;30;20037;-90
2022/06/07 04:40:15;;;;;;;11.57;6.25;;;22.10;90.90;;;;;;4706928;30;20041;-91
2022/06/07 04:42:43;;;;;;;12.57;6.75;;;22.20;91.00;;;;;;4721336;30;20048;-87
2022/06/07 04:52:45;;;;;;;12.20;6.22;;;23.20;90.80;;;;;;4740701;29;20053;-86
2022/06/07 04:55:18;;;;;;;10.80;6.07;;;23.30;91.10;;;;;;4722898;30;20106;-95
2022/06/07 05:08:22;;;;;;;11.23;6.25;;;22.50;90.40;;;;;;505999;27;20430;-85
2022/06/07 05:10:47;;;;;;;13.13;6.70;;;22.50;90.70;;;;;;4774798;29;20039;-86
2022/06/07 05:13:13;;;;;;;11.10;6.28;;;22.60;90.30;;;;;;4779893;30;20059;-90
2022/06/07 05:15:40;;;;;;;11.20;5.55;;;22.70;90.10;;;;;;4761833;30;20027;-96
2022/06/07 05:18:09;;;;;;;12.02;6.63;;;22.60;90.10;;;;;;4763546;30;20035;-96
2022/06/07 05:20:58;;;;;;;11.52;6.32;;;22.60;90.10;;;;;;4760093;30;20039;-91
2022/06/07 05:23:34;;;;;;;13.45;6.38;;;23.90;90.70;;;;;;4776760;30;20038;-94
2022/06/07 05:26:43;;;;;;;12.02;6.35;;;22.30;90.80;;;;;;4780987;30;20397;-96
2022/06/07 05:29:54;;;;;;;16.90;6.68;;;22.30;90.60;;;;;;4776891;30;20524;-92
2022/06/07 05:32:35;;;;;;;11.43;6.80;;;22.20;90.90;;;;;;4763079;30;20043;-95
2022/06/07 05:35:50;;;;;;;13.68;6.38;;;22.30;91.30;;;;;;4760122;30;20085;-94
2022/06/07 05:38:23;;;;;;;12.45;7.07;;;22.40;90.80;;;;;;4706900;30;20037;-94
2022/06/07 05:40:53;;;;;;;15.38;7.75;;;22.40;91.10;;;;;;4718647;30;20529;-95
2022/06/07 05:43:25;;;;;;;10.95;6.55;;;22.60;90.90;;;;;;4718430;30;20144;-88
2022/06/07 05:45:54;;;;;;;13.27;6.63;;;22.70;90.40;;;;;;4707012;30;20040;-94
2022/06/07 05:48:21;;;;;;;13.02;6.72;;;22.80;90.30;;;;;;4701662;30;20072;-94
2022/06/07 05:51:02;;;;;;;11.02;6.30;;;23.00;90.10;;;;;;4709990;30;20064;-91
2022/06/07 05:53:40;;;;;;;12.00;6.45;;;23.10;90.00;;;;;;4691131;30;20037;-94
2022/06/07 05:56:17;;;;;;;13.73;6.82;;;23.30;89.80;;;;;;4688627;30;20263;-95
2022/06/07 05:58:47;;;;;;;11.63;6.38;;;23.30;89.80;;;;;;4688909;30;20033;-84
2022/06/07 06:01:21;;;;;;;16.33;7.15;;;24.70;90.00;;;;;;4696576;30;20045;-95
2022/06/07 06:03:50;;;;;;;15.82;7.53;;;23.30;90.00;;;;;;4703848;30;20049;-83
2022/06/07 06:06:22;;;;;;;19.58;9.13;;;23.10;90.10;;;;;;4704548;30;20045;-94
2022/06/07 06:11:32;;;;;;;13.57;7.85;;;22.50;91.20;;;;;;4722990;30;20145;-91
2022/06/07 06:13:59;;;;;;;15.05;7.47;;;22.20;91.60;;;;;;4716944;30;20063;-94
2022/06/07 06:16:37;;;;;;;26.88;11.32;;;22.10;92.00;;;;;;4739825;30;20035;-95
2022/06/07 06:19:03;;;;;;;20.90;9.75;;;21.50;92.80;;;;;;4740298;30;20042;-83
2022/06/07 06:21:37;;;;;;;12.50;7.30;;;21.50;93.30;;;;;;4759568;30;20361;-86
2022/06/07 06:24:03;;;;;;;14.50;7.80;;;21.70;92.90;;;;;;4766721;30;20410;-82
2022/06/07 06:26:29;;;;;;;17.10;8.15;;;21.90;92.40;;;;;;4768590;30;20185;-84
2022/06/07 06:28:55;;;;;;;13.80;8.25;;;22.20;92.10;;;;;;4747654;30;20031;-94
2022/06/07 06:31:22;;;;;;;17.55;9.65;;;22.30;91.70;;;;;;4763286;30;20404;-93
2022/06/07 06:39:11;;;;;;;14.32;7.35;;;22.80;91.10;;;;;;4863507;24;20081;-93
2022/06/07 06:42:13;;;;;;;15.23;7.65;;;23.40;91.30;;;;;;4814436;29;20430;-93
2022/06/07 06:44:51;;;;;;;16.23;8.07;;;23.30;90.50;;;;;;4814392;29;20034;-95
2022/06/07 06:47:19;;;;;;;18.15;8.13;;;25.30;91.50;;;;;;4813821;29;20065;-86
2022/06/07 06:50:03;;;;;;;16.08;8.77;;;23.20;90.90;;;;;;4813527;29;20045;-85
2022/06/07 06:55:06;;;;;;;15.85;8.35;;;24.80;90.80;;;;;;4820851;24;19929;-91
2022/06/07 06:57:53;;;;;;;14.52;7.43;;;23.50;89.70;;;;;;4815127;29;20027;-94
2022/06/07 07:00:19;;;;;;;14.13;8.48;;;23.50;89.40;;;;;;4824227;24;20062;-91
2022/06/07 07:02:45;;;;;;;16.80;9.20;;;25.70;90.70;;;;;;4814537;29;20042;-91
2022/06/07 07:05:31;;;;;;;15.18;8.85;;;23.40;90.40;;;;;;4815214;29;20083;-90
2022/06/07 07:08:16;;;;;;;15.52;8.90;;;23.10;90.80;;;;;;4774856;30;20035;-93
2022/06/07 07:10:50;;;;;;;16.30;8.25;;;22.90;91.40;;;;;;4762971;30;20035;-89
2022/06/07 07:13:16;;;;;;;14.13;8.05;;;25.20;91.40;;;;;;4760877;30;20707;-89
2022/06/07 07:15:47;;;;;;;14.02;7.80;;;23.00;90.90;;;;;;4776981;30;20031;-88
2022/06/07 07:18:13;;;;;;;17.38;8.38;;;23.10;90.60;;;;;;4761644;30;20039;-88
2022/06/07 07:20:40;;;;;;;17.27;8.25;;;23.30;90.40;;;;;;4777311;30;20117;-95
2022/06/07 07:23:06;;;;;;;16.95;8.07;;;23.50;90.30;;;;;;4761073;30;20575;-84
2022/06/07 07:25:40;;;;;;;14.63;7.55;;;23.50;90.20;;;;;;4776262;30;20533;-95
2022/06/07 07:28:11;;;;;;;13.50;7.97;;;23.40;90.30;;;;;;4762167;30;20036;-96
2022/06/07 07:30:43;;;;;;;14.55;8.73;;;23.50;89.90;;;;;;4776044;30;20741;-89
2022/06/07 07:33:21;;;;;;;14.82;7.53;;;23.70;89.50;;;;;;4776661;30;20071;-94
2022/06/07 07:36:11;;;;;;;13.05;7.85;;;23.80;89.00;;;;;;4777564;30;20734;-91
2022/06/07 07:38:42;;;;;;;15.40;8.98;;;24.00;88.80;;;;;;4788151;29;20030;-93
2022/06/07 07:41:51;;;;;;;16.73;8.63;;;23.90;89.40;;;;;;4815345;29;20026;-92
2022/06/07 07:48:03;;;;;;;15.43;8.13;;;24.00;89.90;;;;;;4816752;29;20136;-93
2022/06/07 07:50:29;;;;;;;15.18;8.18;;;24.10;88.30;;;;;;4912365;24;20265;-94
2022/06/07 07:53:07;;;;;;;13.63;7.82;;;24.10;88.80;;;;;;4816266;29;20030;-94
2022/06/07 07:55:33;;;;;;;15.80;7.65;;;24.40;87.80;;;;;;4783883;29;20161;-86
2022/06/07 07:57:59;;;;;;;14.75;7.55;;;24.60;86.70;;;;;;4819443;29;20700;-86
2022/06/07 08:00:55;;;;;;;15.75;8.95;;;24.70;86.00;;;;;;4799929;29;20033;-93
2022/06/07 08:03:21;;;;;;;16.40;8.25;;;24.70;87.10;;;;;;4860344;24;20054;-88
2022/06/07 08:05:59;;;;;;;18.90;9.82;;;24.80;86.20;;;;;;4912941;24;20164;-96
2022/06/07 08:08:25;;;;;;;15.95;8.95;;;24.90;86.90;;;;;;4813313;29;20064;-87
2022/06/07 08:10:51;;;;;;;16.70;9.50;;;24.70;86.60;;;;;;4813389;29;20081;-88
2022/06/07 08:13:29;;;;;;;15.18;9.00;;;24.00;87.20;;;;;;4813281;29;20046;-94
2022/06/07 08:16:26;;;;;;;17.73;8.77;;;24.50;87.90;;;;;;4813434;29;20030;-95
2022/06/07 08:18:52;;;;;;;13.65;7.78;;;26.50;86.70;;;;;;4811970;29;20126;-89
2022/06/07 08:21:21;;;;;;;14.93;7.88;;;25.00;85.30;;;;;;4813504;29;20113;-81
2022/06/07 08:24:24;;;;;;;15.10;8.35;;;25.10;84.30;;;;;;4814722;29;20229;-95
2022/06/07 08:27:18;;;;;;;18.00;9.45;;;26.00;84.60;;;;;;4827317;29;20061;-94
2022/06/07 08:29:54;;;;;;;22.70;10.02;;;25.30;84.80;;;;;;4815751;29;20030;-94
2022/06/07 08:32:23;;;;;;;15.27;9.15;;;25.80;83.90;;;;;;4813257;29;20183;-95
2022/06/07 08:37:56;;;;;;;17.23;8.93;;;25.90;83.30;;;;;;4817175;29;20069;-93
2022/06/07 08:40:52;;;;;;;16.33;9.23;;;26.60;83.20;;;;;;4826186;29;20023;-94
2022/06/07 08:43:30;;;;;;;15.65;10.05;;;27.20;83.10;;;;;;4820941;29;20110;-95
2022/06/07 08:46:06;;;;;;;17.98;9.75;;;26.10;82.00;;;;;;4828403;29;20018;-90
2022/06/07 08:48:41;;;;;;;17.70;10.07;;;26.10;80.70;;;;;;4830958;29;20102;-95
2022/06/07 08:51:56;;;;;;;20.40;11.93;;;26.20;81.60;;;;;;4830182;29;20022;-93
2022/06/07 08:54:38;;;;;;;18.42;10.50;;;26.40;80.30;;;;;;4828069;29;20037;-95
2022/06/07 08:57:36;;;;;;;17.17;10.27;;;26.40;81.70;;;;;;4831820;29;20030;-88
2022/06/07 09:00:40;;;;;;;14.15;8.50;;;27.60;81.30;;;;;;4795309;29;20604;-82
2022/06/07 09:03:52;;;;;;;16.67;10.25;;;26.60;80.00;;;;;;4798983;29;20030;-89
2022/06/07 09:07:33;;;;;;;17.83;10.45;;;28.50;80.10;;;;;;4799714;29;20051;-93
2022/06/07 09:17:23;;;;;;;17.42;9.75;;;28.40;79.00;;;;;;4676793;30;20570;-88
2022/06/07 09:20:24;;;;;;;18.27;10.48;;;28.30;78.50;;;;;;4660761;30;20034;-94
2022/06/07 09:22:57;;;;;;;19.58;10.60;;;27.80;77.00;;;;;;4680071;30;20045;-94
2022/06/07 09:26:06;;;;;;;18.38;10.30;;;28.00;76.20;;;;;;4671486;30;20046;-90
2022/06/07 09:28:31;;;;;;;16.30;10.27;;;28.30;75.20;;;;;;4670939;30;20050;-89
2022/06/07 09:31:05;;;;;;;18.38;10.48;;;28.20;74.10;;;;;;4670676;30;20132;-82
2022/06/07 09:33:36;;;;;;;16.92;9.75;;;27.80;74.10;;;;;;4770118;24;20061;-82
2022/06/07 09:36:21;;;;;;;19.23;11.55;;;28.00;74.20;;;;;;4813572;29;20038;-94
2022/06/07 09:38:53;;;;;;;17.85;10.65;;;27.90;74.80;;;;;;4830860;29;20052;-94
2022/06/07 09:41:37;;;;;;;18.30;10.35;;;27.90;75.50;;;;;;4829444;29;20038;-82
2022/06/07 09:44:22;;;;;;;19.23;10.85;;;28.10;75.50;;;;;;4813183;29;20034;-93
2022/06/07 09:46:57;;;;;;;16.42;10.13;;;28.60;73.30;;;;;;4812145;29;20475;-86
2022/06/07 09:49:56;;;;;;;17.58;10.75;;;28.50;73.50;;;;;;4828111;29;20028;-87
2022/06/07 09:52:36;;;;;;;17.38;10.05;;;28.80;72.50;;;;;;4813525;29;20061;-84
2022/06/07 09:55:17;;;;;;;18.40;10.25;;;29.10;72.10;;;;;;4827586;29;20034;-79
2022/06/07 09:58:06;;;;;;;17.95;10.43;;;29.40;71.80;;;;;;4793632;29;20223;-87
2022/06/07 10:01:18;;;;;;;17.00;10.38;;;26.90;69.50;;;;;;4789472;29;20486;-81
2022/06/07 10:04:11;;;;;;;15.30;10.27;;;30.70;70.80;;;;;;4731642;30;20561;-81
2022/06/07 10:06:54;;;;;;;19.45;10.07;;;30.80;69.70;;;;;;4718715;30;20041;-95
2022/06/07 10:09:35;;;;;;;20.40;10.57;;;29.50;69.00;;;;;;4716203;30;20029;-90
2022/06/07 10:12:31;;;;;;;15.93;10.20;;;28.80;72.00;;;;;;4731601;30;20655;-86
2022/06/07 10:15:15;;;;;;;19.02;10.10;;;29.00;70.50;;;;;;4713091;30;20052;-81
2022/06/07 10:17:50;;;;;;;17.38;10.73;;;29.20;71.30;;;;;;4728138;30;20050;-96
2022/06/07 10:20:22;;;;;;;17.52;10.13;;;29.30;71.00;;;;;;4710819;30;20020;-95
2022/06/07 10:23:09;;;;;;;20.37;10.40;;;29.30;70.40;;;;;;4716446;30;20089;-86
2022/06/07 10:26:01;;;;;;;15.45;9.82;;;29.30;71.10;;;;;;4727986;30;20984;-91
2022/06/07 10:28:38;;;;;;;16.98;9.98;;;29.50;68.70;;;;;;4726134;30;20444;-91
2022/06/07 10:31:21;;;;;;;18.05;11.05;;;29.60;68.80;;;;;;4759665;30;20034;-78
2022/06/07 10:33:50;;;;;;;;;;;29.70;68.70;;;;;;4759875;29;20058;-91
2022/06/07 10:36:47;;;;;;;17.23;9.57;;;30.00;71.00;;;;;;4760448;30;20200;-78
2022/06/07 10:39:20;;;;;;;21.00;11.38;;;30.30;68.00;;;;;;4759109;30;20059;-94
2022/06/07 10:42:04;;;;;;;;;;;30.20;67.10;;;;;;4793924;29;20119;-89
2022/06/07 10:44:41;;;;;;;15.63;9.82;;;30.50;68.10;;;;;;4796017;29;20011;-81
2022/06/07 10:47:50;;;;;;;17.13;10.55;;;30.00;67.50;;;;;;4783610;29;20066;-94
2022/06/07 10:50:25;;;;;;;18.15;10.52;;;30.30;66.80;;;;;;4724692;30;20040;-92
2022/06/07 10:52:51;;;;;;;16.58;9.85;;;30.40;66.20;;;;;;4722647;30;20044;-85
2022/06/07 10:55:45;;;;;;;17.90;10.38;;;30.80;66.50;;;;;;4707899;30;20115;-81
2022/06/07 10:58:32;;;;;;;17.55;10.48;;;30.80;64.90;;;;;;4671012;30;20801;-83
2022/06/07 11:01:15;;;;;;;16.45;9.60;;;31.10;64.50;;;;;;4672928;30;20513;-93
2022/06/07 11:03:59;;;;;;;16.88;10.55;;;31.40;63.50;;;;;;4672449;30;20081;-93
2022/06/07 11:12:56;;;;;;;17.10;9.63;;;32.00;61.90;;;;;;4828042;24;20110;-83
2022/06/07 11:16:17;;;;;;;16.77;9.48;;;32.50;63.50;;;;;;4723292;30;20033;-96
2022/06/07 11:18:51;;;;;;;16.35;10.73;;;32.60;62.70;;;;;;4728845;30;20253;-93
2022/06/07 11:27:23;;;;;;;15.43;9.15;;;32.30;60.40;;;;;;4860537;29;20052;-93
2022/06/07 11:30:09;;;;;;;14.15;8.95;;;32.30;59.90;;;;;;4949319;24;20069;-85
2022/06/07 11:32:56;;;;;;;14.75;8.88;;;32.60;59.60;;;;;;4807354;29;20061;-94
2022/06/07 11:35:41;;;;;;;16.90;9.30;;;32.70;59.30;;;;;;4808357;29;20054;-90
2022/06/07 11:38:19;;;;;;;16.83;9.27;;;32.80;58.70;;;;;;4819324;29;20042;-87
2022/06/07 11:44:31;;;;;;;14.70;8.90;;;33.60;56.80;;;;;;4817377;29;20253;-96
2022/06/07 11:51:13;;;;;;;;;;;;;;;;;;;;;
2022/06/07 12:01:12;;;;;;;15.63;8.98;;;35.10;53.50;;;;;;4777164;24;20085;-88
2022/06/07 12:04:06;;;;;;;13.48;7.68;;;37.30;54.20;;;;;;4728526;30;20512;-92
2022/06/07 12:06:32;;;;;;;13.85;8.98;;;36.90;53.70;;;;;;4759496;24;20141;-87
2022/06/07 12:09:05;;;;;;;13.02;8.07;;;35.70;53.40;;;;;;4780584;29;20050;-90
2022/06/07 12:17:29;;;;;;;13.90;8.20;;;36.60;50.10;;;;;;4818520;24;20066;-92
2022/06/07 14:13:58;;;;;;;13.45;6.63;;;39.10;41.80;;;;;;5507981;24;20058;-91
2022/06/07 14:17:14;;;;;;;12.30;6.50;;;38.80;42.70;;;;;;4826666;29;20034;-89
2022/06/07 14:23:47;;;;;;;12.70;6.90;;;36.70;42.50;;;;;;4809696;29;20046;-85
2022/06/07 14:27:08;;;;;;;12.63;6.87;;;38.20;44.40;;;;;;4810442;29;20027;-90
2022/06/07 14:29:58;;;;;;;11.98;5.88;;;37.00;44.50;;;;;;4810875;29;20046;-92
2022/06/07 14:46:29;;;;;;;11.00;6.35;;;37.40;42.90;;;;;;5545172;24;20074;-91
2022/06/07 14:56:13;;;;;;;12.25;5.50;;;38.50;42.20;;;;;;4832927;29;20815;-92
2022/06/07 14:58:49;;;;;;;9.82;5.63;;;39.40;42.10;;;;;;4809296;29;20094;-92
2022/06/07 16:58:04;;;;;;;16.25;9.38;;;33.90;48.80;;;;;;5589951;24;20050;-90
2022/06/07 17:03:29;;;;;;;14.43;8.85;;;33.40;52.40;;;;;;5567944;24;20043;-90
2022/06/07 17:09:14;;;;;;;18.42;9.98;;;33.30;52.60;;;;;;5612216;24;20601;-91
2022/06/07 17:22:45;;;;;;;13.27;7.63;;;31.40;53.60;;;;;;5003540;24;20061;-91
2022/06/07 17:25:31;;;;;;;14.02;8.68;;;31.00;54.50;;;;;;4813678;29;20041;-90
2022/06/07 17:28:10;;;;;;;13.90;7.88;;;31.10;57.20;;;;;;4814730;29;20113;-86
2022/06/07 17:31:00;;;;;;;16.65;8.93;;;30.40;56.60;;;;;;4810254;29;20098;-82
2022/06/07 17:33:26;;;;;;;15.75;7.80;;;29.20;58.00;;;;;;4823895;24;20061;-86
2022/06/07 17:36:05;;;;;;;14.30;8.50;;;29.10;59.60;;;;;;4836412;29;20086;-88
2022/06/07 17:38:33;;;;;;;16.98;7.70;;;30.00;60.30;;;;;;4834335;29;20038;-91
2022/06/07 17:41:14;;;;;;;14.25;7.90;;;28.70;59.90;;;;;;4835764;29;20046;-86
2022/06/07 17:43:43;;;;;;;14.38;7.65;;;30.70;61.90;;;;;;4818012;29;20022;-92
2022/06/07 17:46:40;;;;;;;16.80;8.50;;;28.60;60.30;;;;;;4817786;29;20015;-94
2022/06/07 17:49:12;;;;;;;17.20;8.82;;;26.50;59.60;;;;;;4821920;29;20026;-92
2022/06/07 17:51:47;;;;;;;16.33;8.63;;;28.30;62.90;;;;;;4826714;29;20042;-95
2022/06/07 17:54:13;;;;;;;20.27;8.35;;;28.70;64.50;;;;;;4866989;24;20041;-94
2022/06/07 17:56:38;;;;;;;14.30;8.10;;;27.80;65.00;;;;;;4843903;29;20026;-87
2022/06/07 17:59:05;;;;;;;16.15;8.27;;;25.70;63.90;;;;;;4843447;29;20038;-91
2022/06/07 18:01:30;;;;;;;16.00;7.50;;;27.60;65.80;;;;;;4826082;29;20037;-95
2022/06/07 18:04:09;;;;;;;12.65;7.07;;;27.30;66.50;;;;;;4838431;29;20042;-93
2022/06/07 18:06:34;;;;;;;13.70;6.13;;;27.30;66.40;;;;;;4833230;29;20038;-83
2022/06/07 18:09:00;;;;;;;9.25;5.43;;;27.10;65.60;;;;;;4884497;24;20070;-95
2022/06/07 18:11:40;;;;;;;9.52;5.82;;;27.00;65.10;;;;;;4820115;29;20117;-87
2022/06/07 18:14:08;;;;;;;10.77;5.13;;;26.70;64.20;;;;;;4838117;29;20052;-82
2022/06/07 18:19:12;;;;;;;11.25;5.43;;;26.40;65.70;;;;;;4837456;24;20073;-94
2022/06/07 18:21:38;;;;;;;8.43;5.30;;;26.30;65.50;;;;;;4836694;24;20122;-81
2022/06/07 18:24:06;;;;;;;10.95;5.28;;;26.00;64.00;;;;;;4850064;24;20030;-83
2022/06/07 18:26:32;;;;;;;11.65;5.03;;;;;;;;;;4823833;29;20076;-90
2022/06/07 18:29:10;;;;;;;11.63;6.38;;;25.90;64.60;;;;;;4844609;29;20036;-80
2022/06/07 18:34:27;;;;;;;16.80;7.25;;;25.50;68.30;;;;;;4849291;24;20293;-84
2022/06/07 18:36:56;;;;;;;14.52;6.53;;;25.20;69.80;;;;;;4833530;29;20113;-87
2022/06/07 18:39:21;;;;;;;13.55;7.32;;;24.90;70.80;;;;;;4818064;29;20037;-92
2022/06/07 18:41:57;;;;;;;12.95;7.10;;;24.80;71.80;;;;;;4831623;29;20077;-94
2022/06/07 18:44:24;;;;;;;15.93;6.35;;;24.50;72.80;;;;;;4828787;24;20061;-91
2022/06/07 18:46:58;;;;;;;13.05;6.70;;;24.40;73.40;;;;;;4846021;29;20034;-91
2022/06/07 18:49:29;;;;;;;14.05;6.22;;;24.30;74.00;;;;;;4834651;29;20026;-84
2022/06/07 18:57:08;;;;;;;9.97;5.77;;;24.00;76.40;;;;;;4810243;29;20676;-96
2022/06/07 18:59:38;;;;;;;12.02;5.78;;;23.90;76.80;;;;;;4808285;29;20302;-93
2022/06/07 19:02:25;;;;;;;11.30;6.20;;;24.00;77.00;;;;;;4794164;29;20306;-93
2022/06/07 19:04:51;;;;;;;11.63;6.15;;;23.90;77.60;;;;;;4809780;29;20070;-86
2022/06/07 19:07:21;;;;;;;13.60;6.75;;;24.00;77.80;;;;;;4800591;29;20023;-96
2022/06/07 19:09:53;;;;;;;11.40;6.32;;;23.90;78.70;;;;;;4783793;29;20091;-90
2022/06/07 19:12:21;;;;;;;13.65;6.90;;;24.70;79.20;;;;;;4783866;29;20547;-84
2022/06/07 19:14:47;;;;;;;10.38;5.93;;;23.90;78.60;;;;;;4809118;29;20034;-91
2022/06/07 19:17:14;;;;;;;13.23;6.15;;;23.90;79.00;;;;;;4782239;29;20031;-85
2022/06/07 19:19:49;;;;;;;13.75;6.82;;;23.90;78.80;;;;;;4795841;29;20034;-91
2022/06/07 19:22:14;;;;;;;11.25;5.78;;;23.90;79.60;;;;;;4796055;29;20302;-91
2022/06/07 19:24:52;;;;;;;11.48;6.32;;;23.90;81.10;;;;;;4739013;30;20701;-84
2022/06/07 19:27:19;;;;;;;16.83;6.80;;;;;;;;;;4739599;30;20721;-86